sensor_id;sensor_type;location;lat;lon;timestamp;temperature;humidity
15409;DHT22;7803;48.130;13.788;2023-03-29T00:02:54;23.40;66.40
15409;DHT22;7803;48.130;13.788;2023-03-29T00:05:58;23.40;66.30
15409;DHT22;7803;48.130;13.788;2023-03-29T00:09:02;23.40;66.40
15409;DHT22;7803;48.130;13.788;2023-03-29T00:12:06;23.40;66.40
15409;DHT22;7803;48.130;13.788;2023-03-29T00:15:09;23.40;66.40
15409;DHT22;7803;48.130;13.788;2023-03-29T00:18:12;23.40;66.50
15409;DHT22;7803;48.130;13.788;2023-03-29T00:21:14;23.30;66.60
15409;DHT22;7803;48.130;13.788;2023-03-29T00:24:16;23.40;66.50
15409;DHT22;7803;48.130;13.788;2023-03-29T00:27:20;23.30;66.40
15409;DHT22;7803;48.130;13.788;2023-03-29T00:30:22;23.30;66.20
15409;DHT22;7803;48.130;13.788;2023-03-29T00:33:26;23.30;66.40
15409;DHT22;7803;48.130;13.788;2023-03-29T00:36:28;23.30;66.40
15409;DHT22;7803;48.130;13.788;2023-03-29T00:39:31;23.30;66.30
15409;DHT22;7803;48.130;13.788;2023-03-29T00:42:33;23.30;66.20
15409;DHT22;7803;48.130;13.788;2023-03-29T00:45:35;23.20;66.20
15409;DHT22;7803;48.130;13.788;2023-03-29T00:48:38;23.20;66.30
15409;DHT22;7803;48.130;13.788;2023-03-29T00:51:41;23.20;66.30
15409;DHT22;7803;48.130;13.788;2023-03-29T00:54:44;23.20;66.50
15409;DHT22;7803;48.130;13.788;2023-03-29T00:57:46;23.30;66.50
15409;DHT22;7803;48.130;13.788;2023-03-29T01:00:51;23.20;66.40
15409;DHT22;7803;48.130;13.788;2023-03-29T01:04:02;23.20;66.30
15409;DHT22;7803;48.130;13.788;2023-03-29T01:07:09;23.20;66.20
15409;DHT22;7803;48.130;13.788;2023-03-29T01:10:16;23.20;66.20
15409;DHT22;7803;48.130;13.788;2023-03-29T01:13:24;23.20;66.10
15409;DHT22;7803;48.130;13.788;2023-03-29T01:16:30;23.10;66.20
15409;DHT22;7803;48.130;13.788;2023-03-29T01:19:37;23.10;66.20
15409;DHT22;7803;48.130;13.788;2023-03-29T01:22:57;23.10;66.20
15409;DHT22;7803;48.130;13.788;2023-03-29T01:26:10;23.10;66.20
15409;DHT22;7803;48.130;13.788;2023-03-29T01:29:21;23.10;66.30
15409;DHT22;7803;48.130;13.788;2023-03-29T01:32:26;23.10;66.40
15409;DHT22;7803;48.130;13.788;2023-03-29T01:35:38;23.10;66.30
15409;DHT22;7803;48.130;13.788;2023-03-29T01:38:44;23.10;66.20
15409;DHT22;7803;48.130;13.788;2023-03-29T01:41:57;23.10;66.20
15409;DHT22;7803;48.130;13.788;2023-03-29T01:45:07;23.10;66.20
15409;DHT22;7803;48.130;13.788;2023-03-29T01:48:15;23.10;66.20
15409;DHT22;7803;48.130;13.788;2023-03-29T01:51:22;23.00;66.20
15409;DHT22;7803;48.130;13.788;2023-03-29T01:54:29;23.00;66.20
15409;DHT22;7803;48.130;13.788;2023-03-29T01:57:33;23.00;66.20
15409;DHT22;7803;48.130;13.788;2023-03-29T02:00:38;23.00;66.20
15409;DHT22;7803;48.130;13.788;2023-03-29T02:03:43;23.00;66.40
15409;DHT22;7803;48.130;13.788;2023-03-29T02:06:50;23.00;66.40
15409;DHT22;7803;48.130;13.788;2023-03-29T02:09:55;23.00;66.40
15409;DHT22;7803;48.130;13.788;2023-03-29T02:12:58;23.00;66.30
15409;DHT22;7803;48.130;13.788;2023-03-29T02:16:07;22.90;66.20
15409;DHT22;7803;48.130;13.788;2023-03-29T02:19:12;23.00;66.40
15409;DHT22;7803;48.130;13.788;2023-03-29T02:22:17;22.90;66.30
15409;DHT22;7803;48.130;13.788;2023-03-29T02:25:20;22.90;66.30
15409;DHT22;7803;48.130;13.788;2023-03-29T02:28:24;22.90;66.40
15409;DHT22;7803;48.130;13.788;2023-03-29T02:31:31;22.90;66.40
15409;DHT22;7803;48.130;13.788;2023-03-29T02:34:39;22.90;66.40
15409;DHT22;7803;48.130;13.788;2023-03-29T02:37:50;22.80;66.30
15409;DHT22;7803;48.130;13.788;2023-03-29T02:40:54;22.90;66.40
15409;DHT22;7803;48.130;13.788;2023-03-29T02:43:57;22.90;66.50
15409;DHT22;7803;48.130;13.788;2023-03-29T02:47:04;22.90;66.40
15409;DHT22;7803;48.130;13.788;2023-03-29T02:50:07;22.90;66.20
15409;DHT22;7803;48.130;13.788;2023-03-29T02:53:13;22.90;66.20
15409;DHT22;7803;48.130;13.788;2023-03-29T02:56:17;22.90;66.20
15409;DHT22;7803;48.130;13.788;2023-03-29T02:59:20;22.80;66.20
15409;DHT22;7803;48.130;13.788;2023-03-29T03:02:25;22.80;66.30
15409;DHT22;7803;48.130;13.788;2023-03-29T03:05:27;22.70;66.20
15409;DHT22;7803;48.130;13.788;2023-03-29T03:08:29;22.70;66.20
15409;DHT22;7803;48.130;13.788;2023-03-29T03:11:32;22.70;66.20
15409;DHT22;7803;48.130;13.788;2023-03-29T03:14:34;22.70;66.20
15409;DHT22;7803;48.130;13.788;2023-03-29T03:17:38;22.70;66.20
15409;DHT22;7803;48.130;13.788;2023-03-29T03:20:40;22.80;66.30
15409;DHT22;7803;48.130;13.788;2023-03-29T03:23:46;22.80;66.30
15409;DHT22;7803;48.130;13.788;2023-03-29T03:26:48;22.70;65.50
15409;DHT22;7803;48.130;13.788;2023-03-29T03:29:51;22.70;65.40
15409;DHT22;7803;48.130;13.788;2023-03-29T03:32:54;22.80;65.50
15409;DHT22;7803;48.130;13.788;2023-03-29T03:35:56;22.80;65.40
15409;DHT22;7803;48.130;13.788;2023-03-29T03:39:02;22.70;65.30
15409;DHT22;7803;48.130;13.788;2023-03-29T03:42:06;22.80;65.30
15409;DHT22;7803;48.130;13.788;2023-03-29T03:45:09;22.80;65.20
15409;DHT22;7803;48.130;13.788;2023-03-29T03:48:13;22.80;65.20
15409;DHT22;7803;48.130;13.788;2023-03-29T03:51:15;22.90;65.10
15409;DHT22;7803;48.130;13.788;2023-03-29T03:54:18;22.90;65.00
15409;DHT22;7803;48.130;13.788;2023-03-29T03:57:20;22.90;64.90
15409;DHT22;7803;48.130;13.788;2023-03-29T04:00:22;22.90;64.80
15409;DHT22;7803;48.130;13.788;2023-03-29T04:03:26;22.90;64.70
15409;DHT22;7803;48.130;13.788;2023-03-29T04:06:28;23.00;64.70
15409;DHT22;7803;48.130;13.788;2023-03-29T04:09:31;23.00;64.70
15409;DHT22;7803;48.130;13.788;2023-03-29T04:12:34;23.00;64.50
15409;DHT22;7803;48.130;13.788;2023-03-29T04:15:36;23.00;64.50
15409;DHT22;7803;48.130;13.788;2023-03-29T04:18:40;23.00;64.40
15409;DHT22;7803;48.130;13.788;2023-03-29T04:21:42;23.10;64.40
15409;DHT22;7803;48.130;13.788;2023-03-29T04:24:45;23.10;64.40
15409;DHT22;7803;48.130;13.788;2023-03-29T04:27:48;23.10;64.40
15409;DHT22;7803;48.130;13.788;2023-03-29T04:30:50;23.10;64.20
15409;DHT22;7803;48.130;13.788;2023-03-29T04:33:53;23.10;64.20
15409;DHT22;7803;48.130;13.788;2023-03-29T04:36:55;23.10;64.20
15409;DHT22;7803;48.130;13.788;2023-03-29T04:39:58;23.10;64.10
15409;DHT22;7803;48.130;13.788;2023-03-29T04:43:01;23.20;64.20
15409;DHT22;7803;48.130;13.788;2023-03-29T04:46:03;23.20;64.00
15409;DHT22;7803;48.130;13.788;2023-03-29T04:49:08;23.20;64.00
15409;DHT22;7803;48.130;13.788;2023-03-29T04:52:10;23.20;63.30
15409;DHT22;7803;48.130;13.788;2023-03-29T04:55:13;23.20;61.60
15409;DHT22;7803;48.130;13.788;2023-03-29T04:58:15;23.20;61.10
15409;DHT22;7803;48.130;13.788;2023-03-29T05:01:17;23.20;61.00
15409;DHT22;7803;48.130;13.788;2023-03-29T05:04:21;23.20;60.90
15409;DHT22;7803;48.130;13.788;2023-03-29T05:07:24;23.10;61.40
15409;DHT22;7803;48.130;13.788;2023-03-29T05:10:26;23.20;62.00
15409;DHT22;7803;48.130;13.788;2023-03-29T05:13:28;23.20;62.30
15409;DHT22;7803;48.130;13.788;2023-03-29T05:16:30;23.20;62.50
15409;DHT22;7803;48.130;13.788;2023-03-29T05:19:33;23.20;62.60
15409;DHT22;7803;48.130;13.788;2023-03-29T05:22:38;23.30;62.80
15409;DHT22;7803;48.130;13.788;2023-03-29T05:25:40;23.20;62.70
15409;DHT22;7803;48.130;13.788;2023-03-29T05:28:43;23.20;62.80
15409;DHT22;7803;48.130;13.788;2023-03-29T05:31:45;23.30;62.90
15409;DHT22;7803;48.130;13.788;2023-03-29T05:34:49;23.30;63.00
15409;DHT22;7803;48.130;13.788;2023-03-29T05:37:51;23.30;63.00
15409;DHT22;7803;48.130;13.788;2023-03-29T05:40:55;23.30;63.00
15409;DHT22;7803;48.130;13.788;2023-03-29T05:43:58;23.30;63.00
15409;DHT22;7803;48.130;13.788;2023-03-29T05:47:00;23.30;63.00
15409;DHT22;7803;48.130;13.788;2023-03-29T05:50:04;23.30;63.00
15409;DHT22;7803;48.130;13.788;2023-03-29T05:53:08;23.30;63.00
15409;DHT22;7803;48.130;13.788;2023-03-29T05:56:10;23.30;63.10
15409;DHT22;7803;48.130;13.788;2023-03-29T05:59:15;23.30;63.00
15409;DHT22;7803;48.130;13.788;2023-03-29T06:02:19;23.30;63.10
15409;DHT22;7803;48.130;13.788;2023-03-29T06:05:22;23.30;63.10
15409;DHT22;7803;48.130;13.788;2023-03-29T06:08:25;23.30;63.10
15409;DHT22;7803;48.130;13.788;2023-03-29T06:11:28;23.30;63.00
15409;DHT22;7803;48.130;13.788;2023-03-29T06:14:31;23.30;63.00
15409;DHT22;7803;48.130;13.788;2023-03-29T06:17:33;23.30;63.00
15409;DHT22;7803;48.130;13.788;2023-03-29T06:20:37;23.40;63.10
15409;DHT22;7803;48.130;13.788;2023-03-29T06:23:39;23.40;63.20
15409;DHT22;7803;48.130;13.788;2023-03-29T06:26:41;23.40;63.20
15409;DHT22;7803;48.130;13.788;2023-03-29T06:29:43;23.30;63.10
15409;DHT22;7803;48.130;13.788;2023-03-29T06:32:47;23.40;63.20
15409;DHT22;7803;48.130;13.788;2023-03-29T06:35:51;23.40;63.10
15409;DHT22;7803;48.130;13.788;2023-03-29T06:38:53;23.40;63.10
15409;DHT22;7803;48.130;13.788;2023-03-29T06:41:55;23.40;63.10
15409;DHT22;7803;48.130;13.788;2023-03-29T06:44:57;23.40;63.10
15409;DHT22;7803;48.130;13.788;2023-03-29T06:47:59;23.40;63.10
15409;DHT22;7803;48.130;13.788;2023-03-29T06:51:04;23.40;63.00
15409;DHT22;7803;48.130;13.788;2023-03-29T06:54:07;23.40;63.00
15409;DHT22;7803;48.130;13.788;2023-03-29T06:57:09;23.40;63.00
15409;DHT22;7803;48.130;13.788;2023-03-29T07:00:13;23.40;63.00
15409;DHT22;7803;48.130;13.788;2023-03-29T07:03:17;23.40;63.00
15409;DHT22;7803;48.130;13.788;2023-03-29T07:06:24;23.40;63.00
15409;DHT22;7803;48.130;13.788;2023-03-29T07:09:26;23.40;63.00
15409;DHT22;7803;48.130;13.788;2023-03-29T07:12:30;23.40;63.00
15409;DHT22;7803;48.130;13.788;2023-03-29T07:15:32;23.40;63.00
15409;DHT22;7803;48.130;13.788;2023-03-29T07:18:34;23.40;63.00
15409;DHT22;7803;48.130;13.788;2023-03-29T07:21:37;23.40;63.00
15409;DHT22;7803;48.130;13.788;2023-03-29T07:24:40;23.40;63.00
15409;DHT22;7803;48.130;13.788;2023-03-29T07:27:42;23.40;63.00
15409;DHT22;7803;48.130;13.788;2023-03-29T07:30:44;23.40;63.00
15409;DHT22;7803;48.130;13.788;2023-03-29T07:33:46;23.50;63.00
15409;DHT22;7803;48.130;13.788;2023-03-29T07:36:53;23.40;63.00
15409;DHT22;7803;48.130;13.788;2023-03-29T07:39:55;23.40;63.00
15409;DHT22;7803;48.130;13.788;2023-03-29T07:42:57;23.40;63.00
15409;DHT22;7803;48.130;13.788;2023-03-29T07:46:00;23.40;63.00
15409;DHT22;7803;48.130;13.788;2023-03-29T07:49:02;23.40;63.00
15409;DHT22;7803;48.130;13.788;2023-03-29T07:52:05;23.50;63.00
15409;DHT22;7803;48.130;13.788;2023-03-29T07:55:09;23.50;63.00
15409;DHT22;7803;48.130;13.788;2023-03-29T07:58:12;23.50;63.00
15409;DHT22;7803;48.130;13.788;2023-03-29T08:01:15;23.50;63.00
15409;DHT22;7803;48.130;13.788;2023-03-29T08:04:18;23.50;63.00
15409;DHT22;7803;48.130;13.788;2023-03-29T08:07:22;23.40;62.90
15409;DHT22;7803;48.130;13.788;2023-03-29T08:10:25;23.50;63.00
15409;DHT22;7803;48.130;13.788;2023-03-29T08:13:28;23.50;63.00
15409;DHT22;7803;48.130;13.788;2023-03-29T08:16:30;23.50;63.00
15409;DHT22;7803;48.130;13.788;2023-03-29T08:19:32;23.50;63.00
15409;DHT22;7803;48.130;13.788;2023-03-29T08:22:36;23.50;63.00
15409;DHT22;7803;48.130;13.788;2023-03-29T08:25:38;23.50;63.80
15409;DHT22;7803;48.130;13.788;2023-03-29T08:28:41;23.50;63.10
15409;DHT22;7803;48.130;13.788;2023-03-29T08:31:43;23.50;63.00
15409;DHT22;7803;48.130;13.788;2023-03-29T08:34:45;23.50;63.00
15409;DHT22;7803;48.130;13.788;2023-03-29T08:37:48;23.50;62.90
15409;DHT22;7803;48.130;13.788;2023-03-29T08:40:51;23.60;63.00
15409;DHT22;7803;48.130;13.788;2023-03-29T08:44:01;23.50;63.00
15409;DHT22;7803;48.130;13.788;2023-03-29T08:47:12;23.50;63.00
15409;DHT22;7803;48.130;13.788;2023-03-29T08:50:19;23.50;62.90
15409;DHT22;7803;48.130;13.788;2023-03-29T08:53:26;23.50;62.80
15409;DHT22;7803;48.130;13.788;2023-03-29T08:56:31;23.50;62.90
15409;DHT22;7803;48.130;13.788;2023-03-29T08:59:36;23.60;62.90
15409;DHT22;7803;48.130;13.788;2023-03-29T09:02:40;23.60;62.90
15409;DHT22;7803;48.130;13.788;2023-03-29T09:05:46;23.60;62.90
15409;DHT22;7803;48.130;13.788;2023-03-29T09:08:51;23.50;62.80
15409;DHT22;7803;48.130;13.788;2023-03-29T09:12:03;23.50;62.80
15409;DHT22;7803;48.130;13.788;2023-03-29T09:15:13;23.50;62.80
15409;DHT22;7803;48.130;13.788;2023-03-29T09:18:21;23.50;62.80
15409;DHT22;7803;48.130;13.788;2023-03-29T09:21:31;23.60;63.00
15409;DHT22;7803;48.130;13.788;2023-03-29T09:24:48;23.50;62.90
15409;DHT22;7803;48.130;13.788;2023-03-29T09:27:58;23.50;62.80
15409;DHT22;7803;48.130;13.788;2023-03-29T09:31:05;23.50;62.80
15409;DHT22;7803;48.130;13.788;2023-03-29T09:34:13;23.50;62.80
15409;DHT22;7803;48.130;13.788;2023-03-29T09:37:21;23.60;62.90
15409;DHT22;7803;48.130;13.788;2023-03-29T09:40:30;23.50;62.80
15409;DHT22;7803;48.130;13.788;2023-03-29T09:43:35;23.50;62.80
15409;DHT22;7803;48.130;13.788;2023-03-29T09:46:40;23.50;62.80
15409;DHT22;7803;48.130;13.788;2023-03-29T09:49:45;23.60;62.80
15409;DHT22;7803;48.130;13.788;2023-03-29T09:52:48;23.60;62.90
15409;DHT22;7803;48.130;13.788;2023-03-29T09:55:52;23.60;62.90
15409;DHT22;7803;48.130;13.788;2023-03-29T09:58:54;23.50;62.80
15409;DHT22;7803;48.130;13.788;2023-03-29T10:02:05;23.60;62.90
15409;DHT22;7803;48.130;13.788;2023-03-29T10:05:15;23.60;63.00
15409;DHT22;7803;48.130;13.788;2023-03-29T10:08:24;23.50;62.80
15409;DHT22;7803;48.130;13.788;2023-03-29T10:11:30;23.60;62.90
15409;DHT22;7803;48.130;13.788;2023-03-29T10:14:34;23.50;62.80
15409;DHT22;7803;48.130;13.788;2023-03-29T10:17:39;23.60;63.00
15409;DHT22;7803;48.130;13.788;2023-03-29T10:20:42;23.60;62.80
15409;DHT22;7803;48.130;13.788;2023-03-29T10:23:45;23.60;62.80
15409;DHT22;7803;48.130;13.788;2023-03-29T10:26:51;23.60;62.90
15409;DHT22;7803;48.130;13.788;2023-03-29T10:29:56;23.60;62.90
15409;DHT22;7803;48.130;13.788;2023-03-29T10:32:59;23.60;62.90
15409;DHT22;7803;48.130;13.788;2023-03-29T10:36:05;23.60;62.90
15409;DHT22;7803;48.130;13.788;2023-03-29T10:39:09;23.60;62.80
15409;DHT22;7803;48.130;13.788;2023-03-29T10:42:16;23.60;62.80
15409;DHT22;7803;48.130;13.788;2023-03-29T10:45:24;23.60;62.90
15409;DHT22;7803;48.130;13.788;2023-03-29T10:48:29;23.60;62.90
15409;DHT22;7803;48.130;13.788;2023-03-29T10:51:31;23.60;62.90
15409;DHT22;7803;48.130;13.788;2023-03-29T10:54:34;23.60;63.00
15409;DHT22;7803;48.130;13.788;2023-03-29T10:57:46;23.60;63.00
15409;DHT22;7803;48.130;13.788;2023-03-29T11:00:53;23.50;63.00
15409;DHT22;7803;48.130;13.788;2023-03-29T11:04:06;23.50;63.00
15409;DHT22;7803;48.130;13.788;2023-03-29T11:07:21;23.50;63.10
15409;DHT22;7803;48.130;13.788;2023-03-29T11:10:35;23.50;63.10
15409;DHT22;7803;48.130;13.788;2023-03-29T11:13:46;23.40;63.10
15409;DHT22;7803;48.130;13.788;2023-03-29T11:16:59;23.40;63.20
15409;DHT22;7803;48.130;13.788;2023-03-29T11:20:16;23.40;63.20
15409;DHT22;7803;48.130;13.788;2023-03-29T11:23:30;23.40;63.30
15409;DHT22;7803;48.130;13.788;2023-03-29T11:26:42;23.40;63.30
15409;DHT22;7803;48.130;13.788;2023-03-29T11:29:59;23.40;63.40
15409;DHT22;7803;48.130;13.788;2023-03-29T11:33:12;23.40;63.40
15409;DHT22;7803;48.130;13.788;2023-03-29T11:36:22;23.40;63.40
15409;DHT22;7803;48.130;13.788;2023-03-29T11:39:32;23.40;63.40
15409;DHT22;7803;48.130;13.788;2023-03-29T11:42:43;23.40;63.30
15409;DHT22;7803;48.130;13.788;2023-03-29T11:45:52;23.40;63.40
15409;DHT22;7803;48.130;13.788;2023-03-29T11:49:01;23.40;63.30
15409;DHT22;7803;48.130;13.788;2023-03-29T11:52:10;23.40;63.30
15409;DHT22;7803;48.130;13.788;2023-03-29T11:55:16;23.40;63.30
15409;DHT22;7803;48.130;13.788;2023-03-29T11:58:24;23.40;63.30
15409;DHT22;7803;48.130;13.788;2023-03-29T12:01:32;23.40;63.30
15409;DHT22;7803;48.130;13.788;2023-03-29T12:04:41;23.40;63.20
15409;DHT22;7803;48.130;13.788;2023-03-29T12:07:47;23.40;63.20
15409;DHT22;7803;48.130;13.788;2023-03-29T12:10:56;23.40;63.60
15409;DHT22;7803;48.130;13.788;2023-03-29T12:14:04;23.50;63.30
15409;DHT22;7803;48.130;13.788;2023-03-29T12:17:14;23.40;63.30
15409;DHT22;7803;48.130;13.788;2023-03-29T12:20:21;23.50;63.30
15409;DHT22;7803;48.130;13.788;2023-03-29T12:23:29;23.40;63.20
15409;DHT22;7803;48.130;13.788;2023-03-29T12:30:22;23.50;63.30
15409;DHT22;7803;48.130;13.788;2023-03-29T12:33:50;23.50;63.20
15409;DHT22;7803;48.130;13.788;2023-03-29T12:37:28;23.50;63.20
15409;DHT22;7803;48.130;13.788;2023-03-29T12:40:39;23.50;63.20
15409;DHT22;7803;48.130;13.788;2023-03-29T12:43:42;23.50;63.20
15409;DHT22;7803;48.130;13.788;2023-03-29T12:46:45;23.50;63.30
15409;DHT22;7803;48.130;13.788;2023-03-29T12:49:52;23.50;63.30
15409;DHT22;7803;48.130;13.788;2023-03-29T12:53:02;23.50;63.30
15409;DHT22;7803;48.130;13.788;2023-03-29T12:56:11;23.50;63.30
15409;DHT22;7803;48.130;13.788;2023-03-29T12:59:24;23.50;63.30
15409;DHT22;7803;48.130;13.788;2023-03-29T13:02:34;23.50;63.20
15409;DHT22;7803;48.130;13.788;2023-03-29T13:05:38;23.50;63.20
15409;DHT22;7803;48.130;13.788;2023-03-29T13:08:43;23.50;63.20
15409;DHT22;7803;48.130;13.788;2023-03-29T13:11:51;23.50;63.30
15409;DHT22;7803;48.130;13.788;2023-03-29T13:14:56;23.60;63.30
15409;DHT22;7803;48.130;13.788;2023-03-29T13:18:09;23.50;63.20
15409;DHT22;7803;48.130;13.788;2023-03-29T13:21:21;23.50;63.30
15409;DHT22;7803;48.130;13.788;2023-03-29T13:24:42;23.50;63.30
15409;DHT22;7803;48.130;13.788;2023-03-29T13:27:52;23.50;63.30
15409;DHT22;7803;48.130;13.788;2023-03-29T13:30:58;23.60;63.30
15409;DHT22;7803;48.130;13.788;2023-03-29T13:34:11;23.50;63.30
15409;DHT22;7803;48.130;13.788;2023-03-29T13:37:30;23.50;63.30
15409;DHT22;7803;48.130;13.788;2023-03-29T13:40:44;23.60;63.30
15409;DHT22;7803;48.130;13.788;2023-03-29T13:43:51;23.60;63.40
15409;DHT22;7803;48.130;13.788;2023-03-29T13:47:03;23.60;63.30
15409;DHT22;7803;48.130;13.788;2023-03-29T13:50:13;23.60;63.30
15409;DHT22;7803;48.130;13.788;2023-03-29T13:53:25;23.50;63.30
15409;DHT22;7803;48.130;13.788;2023-03-29T13:56:31;23.50;63.30
15409;DHT22;7803;48.130;13.788;2023-03-29T13:59:40;23.50;63.30
15409;DHT22;7803;48.130;13.788;2023-03-29T14:02:46;23.50;63.30
15409;DHT22;7803;48.130;13.788;2023-03-29T14:05:52;23.50;63.40
15409;DHT22;7803;48.130;13.788;2023-03-29T14:09:02;23.50;63.40
15409;DHT22;7803;48.130;13.788;2023-03-29T14:12:08;23.50;63.40
15409;DHT22;7803;48.130;13.788;2023-03-29T14:15:20;23.50;63.40
15409;DHT22;7803;48.130;13.788;2023-03-29T14:18:24;23.50;63.40
15409;DHT22;7803;48.130;13.788;2023-03-29T14:21:28;23.50;63.40
15409;DHT22;7803;48.130;13.788;2023-03-29T14:24:37;23.50;63.50
15409;DHT22;7803;48.130;13.788;2023-03-29T14:27:40;23.50;63.50
15409;DHT22;7803;48.130;13.788;2023-03-29T14:30:44;23.50;63.50
15409;DHT22;7803;48.130;13.788;2023-03-29T14:33:50;23.50;63.50
15409;DHT22;7803;48.130;13.788;2023-03-29T14:36:53;23.40;63.50
15409;DHT22;7803;48.130;13.788;2023-03-29T14:39:57;23.50;63.50
15409;DHT22;7803;48.130;13.788;2023-03-29T14:43:03;23.50;63.50
15409;DHT22;7803;48.130;13.788;2023-03-29T14:46:06;23.40;63.50
15409;DHT22;7803;48.130;13.788;2023-03-29T14:49:10;23.50;63.60
15409;DHT22;7803;48.130;13.788;2023-03-29T14:52:13;23.50;63.60
15409;DHT22;7803;48.130;13.788;2023-03-29T14:55:17;23.50;63.60
15409;DHT22;7803;48.130;13.788;2023-03-29T14:58:27;23.50;63.50
15409;DHT22;7803;48.130;13.788;2023-03-29T15:01:29;23.50;63.60
15409;DHT22;7803;48.130;13.788;2023-03-29T15:04:32;23.50;63.50
15409;DHT22;7803;48.130;13.788;2023-03-29T15:07:35;23.50;63.60
15409;DHT22;7803;48.130;13.788;2023-03-29T15:10:40;23.60;63.70
15409;DHT22;7803;48.130;13.788;2023-03-29T15:13:43;23.60;63.70
15409;DHT22;7803;48.130;13.788;2023-03-29T15:16:47;23.50;63.60
15409;DHT22;7803;48.130;13.788;2023-03-29T15:19:51;23.60;63.70
15409;DHT22;7803;48.130;13.788;2023-03-29T15:22:57;23.60;63.70
15409;DHT22;7803;48.130;13.788;2023-03-29T15:26:11;23.50;63.70
15409;DHT22;7803;48.130;13.788;2023-03-29T15:29:15;23.50;63.70
15409;DHT22;7803;48.130;13.788;2023-03-29T15:32:24;23.50;63.70
15409;DHT22;7803;48.130;13.788;2023-03-29T15:35:26;23.50;63.70
15409;DHT22;7803;48.130;13.788;2023-03-29T15:38:29;23.50;63.70
15409;DHT22;7803;48.130;13.788;2023-03-29T15:41:33;23.50;63.70
15409;DHT22;7803;48.130;13.788;2023-03-29T15:44:37;23.50;63.80
15409;DHT22;7803;48.130;13.788;2023-03-29T15:47:39;23.60;63.80
15409;DHT22;7803;48.130;13.788;2023-03-29T15:50:42;23.50;63.70
15409;DHT22;7803;48.130;13.788;2023-03-29T15:53:45;23.50;63.80
15409;DHT22;7803;48.130;13.788;2023-03-29T15:56:51;23.50;63.80
15409;DHT22;7803;48.130;13.788;2023-03-29T15:59:54;23.50;63.70
15409;DHT22;7803;48.130;13.788;2023-03-29T16:02:57;23.50;63.80
15409;DHT22;7803;48.130;13.788;2023-03-29T16:05:59;23.50;63.80
15409;DHT22;7803;48.130;13.788;2023-03-29T16:09:02;23.50;63.80
15409;DHT22;7803;48.130;13.788;2023-03-29T16:12:07;23.50;63.80
15409;DHT22;7803;48.130;13.788;2023-03-29T16:15:14;23.50;63.80
15409;DHT22;7803;48.130;13.788;2023-03-29T16:18:16;23.50;63.90
15409;DHT22;7803;48.130;13.788;2023-03-29T16:21:20;23.50;63.80
15409;DHT22;7803;48.130;13.788;2023-03-29T16:24:24;23.50;63.90
15409;DHT22;7803;48.130;13.788;2023-03-29T16:27:28;23.50;64.00
15409;DHT22;7803;48.130;13.788;2023-03-29T16:30:31;23.50;63.90
15409;DHT22;7803;48.130;13.788;2023-03-29T16:33:33;23.60;64.00
15409;DHT22;7803;48.130;13.788;2023-03-29T16:36:35;23.50;63.90
15409;DHT22;7803;48.130;13.788;2023-03-29T16:39:38;23.50;63.90
15409;DHT22;7803;48.130;13.788;2023-03-29T16:42:41;23.50;63.90
15409;DHT22;7803;48.130;13.788;2023-03-29T16:45:44;23.50;63.90
15409;DHT22;7803;48.130;13.788;2023-03-29T16:48:46;23.50;64.00
15409;DHT22;7803;48.130;13.788;2023-03-29T16:51:48;23.50;64.00
15409;DHT22;7803;48.130;13.788;2023-03-29T16:54:50;23.50;64.00
15409;DHT22;7803;48.130;13.788;2023-03-29T16:57:54;23.50;64.00
15409;DHT22;7803;48.130;13.788;2023-03-29T17:00:57;23.50;64.00
15409;DHT22;7803;48.130;13.788;2023-03-29T17:03:59;23.50;64.10
15409;DHT22;7803;48.130;13.788;2023-03-29T17:07:01;23.50;64.00
15409;DHT22;7803;48.130;13.788;2023-03-29T17:10:04;23.50;64.00
15409;DHT22;7803;48.130;13.788;2023-03-29T17:13:08;23.50;64.00
15409;DHT22;7803;48.130;13.788;2023-03-29T17:16:10;23.50;64.00
15409;DHT22;7803;48.130;13.788;2023-03-29T17:19:13;23.50;64.10
15409;DHT22;7803;48.130;13.788;2023-03-29T17:22:15;23.50;64.20
15409;DHT22;7803;48.130;13.788;2023-03-29T17:25:18;23.50;64.10
15409;DHT22;7803;48.130;13.788;2023-03-29T17:28:22;23.50;64.10
15409;DHT22;7803;48.130;13.788;2023-03-29T17:31:25;23.50;64.10
15409;DHT22;7803;48.130;13.788;2023-03-29T17:34:27;23.50;64.20
15409;DHT22;7803;48.130;13.788;2023-03-29T17:37:30;23.50;64.10
15409;DHT22;7803;48.130;13.788;2023-03-29T17:40:32;23.50;64.10
15409;DHT22;7803;48.130;13.788;2023-03-29T17:43:36;23.50;64.10
15409;DHT22;7803;48.130;13.788;2023-03-29T17:46:39;23.50;64.10
15409;DHT22;7803;48.130;13.788;2023-03-29T17:49:42;23.50;64.10
15409;DHT22;7803;48.130;13.788;2023-03-29T17:52:44;23.50;64.10
15409;DHT22;7803;48.130;13.788;2023-03-29T17:55:46;23.50;64.10
15409;DHT22;7803;48.130;13.788;2023-03-29T17:58:50;23.50;64.10
15409;DHT22;7803;48.130;13.788;2023-03-29T18:01:52;23.50;64.10
15409;DHT22;7803;48.130;13.788;2023-03-29T18:04:55;23.50;64.10
15409;DHT22;7803;48.130;13.788;2023-03-29T18:08:01;23.50;64.20
15409;DHT22;7803;48.130;13.788;2023-03-29T18:11:04;23.50;64.10
15409;DHT22;7803;48.130;13.788;2023-03-29T18:14:09;23.50;64.10
15409;DHT22;7803;48.130;13.788;2023-03-29T18:17:14;23.50;64.20
15409;DHT22;7803;48.130;13.788;2023-03-29T18:20:17;23.50;64.20
15409;DHT22;7803;48.130;13.788;2023-03-29T18:23:20;23.50;64.10
15409;DHT22;7803;48.130;13.788;2023-03-29T18:26:23;23.50;64.10
15409;DHT22;7803;48.130;13.788;2023-03-29T18:29:27;23.50;64.10
15409;DHT22;7803;48.130;13.788;2023-03-29T18:32:30;23.50;64.10
15409;DHT22;7803;48.130;13.788;2023-03-29T18:35:33;23.50;64.00
15409;DHT22;7803;48.130;13.788;2023-03-29T18:38:36;23.50;64.00
15409;DHT22;7803;48.130;13.788;2023-03-29T18:41:40;23.50;64.00
15409;DHT22;7803;48.130;13.788;2023-03-29T18:44:45;23.50;64.10
15409;DHT22;7803;48.130;13.788;2023-03-29T18:47:48;23.50;64.10
15409;DHT22;7803;48.130;13.788;2023-03-29T18:50:54;23.50;64.10
15409;DHT22;7803;48.130;13.788;2023-03-29T18:53:57;23.50;64.10
15409;DHT22;7803;48.130;13.788;2023-03-29T18:57:01;23.50;64.10
15409;DHT22;7803;48.130;13.788;2023-03-29T19:00:08;23.50;64.10
15409;DHT22;7803;48.130;13.788;2023-03-29T19:03:12;23.50;64.10
15409;DHT22;7803;48.130;13.788;2023-03-29T19:06:18;23.50;64.00
15409;DHT22;7803;48.130;13.788;2023-03-29T19:09:23;23.50;64.10
15409;DHT22;7803;48.130;13.788;2023-03-29T19:12:28;23.50;64.10
15409;DHT22;7803;48.130;13.788;2023-03-29T19:15:34;23.50;64.10
15409;DHT22;7803;48.130;13.788;2023-03-29T19:18:36;23.50;64.10
15409;DHT22;7803;48.130;13.788;2023-03-29T19:21:40;23.50;64.10
15409;DHT22;7803;48.130;13.788;2023-03-29T19:24:43;23.50;64.10
15409;DHT22;7803;48.130;13.788;2023-03-29T19:27:46;23.50;64.10
15409;DHT22;7803;48.130;13.788;2023-03-29T19:30:51;23.50;64.00
15409;DHT22;7803;48.130;13.788;2023-03-29T19:33:55;23.50;64.00